If you wish to contribute or participate in the discussions about articles you are invited to join SKYbrary as a registered user

 Actions

Al Asad Airbase

From SKYbrary Wiki

ORAA
Airport
ICAO: ORAA
Summary
Name Al Asad Airbase
Region Middle East
Territory Iraq IQ.gif
Location Al Asad
Serving Al Asad
Elevation 188 m
616.798 ft
616.798 ft188 m
Coordinates 33° 47' 9.05" N, 42° 26' 43.02" E
Runways
Designator Length Width Surface ROPS
8/26 3086 m10,124.672 ft
103 m337.927 ft
GRE /
09L/27R 4000 m13,123.36 ft
60 m196.85 ft
ASP /
09R/27L 4000 m13,123.36 ft
45 m147.638 ft
ASP /


METAR
Observation ORAA 251200Z 33005KT 9999 CLR 46/03 A2978
Station Al Asad Airbase
Date/Time 25 June 2019 12:00:00
Wind direction 330°
Wind speed 05 kts
Lowest cloud amount n/a
Temperature 46°C
Dew point 3°C
Humidity 7%
QNH hPa
Weather condition n/a